createdAt,value
2023-05-02T00:01:49.800Z,1.90
2023-05-02T00:04:17.480Z,2.67
2023-05-02T00:06:46.745Z,2.20
2023-05-02T00:09:15.684Z,1.62
2023-05-02T00:11:43.193Z,2.05
2023-05-02T00:14:12.586Z,1.85
2023-05-02T00:16:40.108Z,2.00
2023-05-02T00:19:08.103Z,1.85
2023-05-02T00:21:35.443Z,2.00
2023-05-02T00:24:02.836Z,1.70
2023-05-02T00:30:02.247Z,1.70
2023-05-02T00:36:00.457Z,2.17
2023-05-02T00:38:27.911Z,1.87
2023-05-02T00:40:55.178Z,1.90
2023-05-02T00:43:22.469Z,1.85
2023-05-02T00:45:50.753Z,2.20
2023-05-02T00:48:20.641Z,2.03
2023-05-02T00:50:47.794Z,1.63
2023-05-02T00:53:15.426Z,1.90
2023-05-02T00:55:43.058Z,1.80
2023-05-02T00:58:15.163Z,2.05
2023-05-02T01:01:00.509Z,2.03
2023-05-02T01:03:53.026Z,2.40
2023-05-02T01:06:35.924Z,2.22
2023-05-02T01:09:18.949Z,2.35
2023-05-02T01:12:29.185Z,2.12
2023-05-02T01:14:57.819Z,2.10
2023-05-02T01:17:29.320Z,2.33
2023-05-02T01:20:03.345Z,2.15
2023-05-02T01:22:31.607Z,2.53
2023-05-02T01:25:31.131Z,2.25
2023-05-02T01:28:13.962Z,2.40
2023-05-02T01:34:12.158Z,2.28
2023-05-02T01:36:45.142Z,2.47
2023-05-02T01:39:17.117Z,2.87
2023-05-02T01:41:45.277Z,2.53
2023-05-02T01:44:13.615Z,2.65
2023-05-02T01:46:42.909Z,2.35
2023-05-02T01:49:10.961Z,2.55
2023-05-02T01:51:44.599Z,2.37
2023-05-02T01:54:14.329Z,2.50
2023-05-02T01:56:43.670Z,2.50
2023-05-02T01:59:14.514Z,2.28
2023-05-02T02:01:43.832Z,2.28
2023-05-02T02:04:13.642Z,2.53
2023-05-02T02:06:43.749Z,2.33
2023-05-02T02:12:39.051Z,2.20
2023-05-02T02:15:17.579Z,2.95
2023-05-02T02:18:02.712Z,2.10
2023-05-02T02:20:32.008Z,1.90
2023-05-02T02:23:01.009Z,2.50
2023-05-02T02:25:28.681Z,1.83
2023-05-02T02:27:57.153Z,2.20
2023-05-02T02:30:24.442Z,2.42
2023-05-02T02:32:51.800Z,4.78
2023-05-02T02:35:19.873Z,7.57
2023-05-02T02:37:48.547Z,5.22
2023-05-02T02:40:21.657Z,8.43
2023-05-02T02:43:00.503Z,4.97
2023-05-02T02:45:35.358Z,6.43
2023-05-02T02:48:28.069Z,4.05
2023-05-02T02:51:01.966Z,4.32
2023-05-02T02:54:05.950Z,3.47
2023-05-02T02:56:40.559Z,5.07
2023-05-02T02:59:13.965Z,3.42
2023-05-02T03:01:44.489Z,4.07
2023-05-02T03:06:39.692Z,2.83
2023-05-02T03:09:07.353Z,2.97
2023-05-02T03:11:34.879Z,3.90
2023-05-02T03:14:02.045Z,3.53
2023-05-02T03:16:37.556Z,3.75
2023-05-02T03:19:06.936Z,3.15
2023-05-02T03:21:35.491Z,2.50
2023-05-02T03:24:05.231Z,3.50
2023-05-02T03:26:32.929Z,3.47
2023-05-02T03:29:00.888Z,3.45
2023-05-02T03:35:00.205Z,3.87
2023-05-02T03:37:29.627Z,4.32
2023-05-02T03:39:57.965Z,4.00
2023-05-02T03:42:25.632Z,3.20
2023-05-02T03:44:53.936Z,3.10
2023-05-02T03:47:21.315Z,3.42
2023-05-02T03:49:49.572Z,3.70
2023-05-02T03:52:17.622Z,3.40
2023-05-02T03:54:46.795Z,3.45
2023-05-02T03:57:14.491Z,3.83
2023-05-02T03:59:45.734Z,3.75
2023-05-02T04:02:14.049Z,3.65
2023-05-02T04:04:43.523Z,3.60
2023-05-02T04:07:18.197Z,4.45
2023-05-02T04:09:46.233Z,3.75
2023-05-02T04:12:15.722Z,3.75
2023-05-02T04:14:43.498Z,4.22
2023-05-02T04:17:11.303Z,3.58
2023-05-02T04:19:39.022Z,4.45
2023-05-02T04:22:06.451Z,4.12
2023-05-02T04:24:35.186Z,4.85
2023-05-02T04:27:03.020Z,3.95
2023-05-02T04:29:30.507Z,3.75
2023-05-02T04:31:58.635Z,3.90
2023-05-02T04:34:27.718Z,4.20
2023-05-02T04:36:55.656Z,4.65
2023-05-02T04:39:24.232Z,3.90
2023-05-02T04:41:53.450Z,6.55
2023-05-02T04:44:22.335Z,4.25
2023-05-02T04:46:50.381Z,3.08
2023-05-02T04:49:19.690Z,3.60
2023-05-02T04:51:47.198Z,3.80
2023-05-02T04:54:15.824Z,3.65
2023-05-02T04:56:43.889Z,3.40
2023-05-02T04:59:14.584Z,3.72
2023-05-02T05:01:42.345Z,3.87
2023-05-02T05:04:10.167Z,3.20
2023-05-02T05:06:37.866Z,4.35
2023-05-02T05:09:06.192Z,3.37
2023-05-02T05:11:34.262Z,4.05
2023-05-02T05:14:04.148Z,3.55
2023-05-02T05:16:32.632Z,3.50
2023-05-02T05:18:59.975Z,3.30
2023-05-02T05:21:27.510Z,3.80
2023-05-02T05:23:56.570Z,3.35
2023-05-02T05:29:55.030Z,2.95
2023-05-02T05:32:22.710Z,3.78
2023-05-02T05:34:53.985Z,4.12
2023-05-02T05:37:22.722Z,3.62
2023-05-02T05:39:50.306Z,4.53
2023-05-02T05:42:18.529Z,3.47
2023-05-02T05:44:46.588Z,4.87
2023-05-02T05:47:20.373Z,3.30
2023-05-02T05:49:48.882Z,3.75
2023-05-02T05:52:16.608Z,3.17
2023-05-02T05:54:43.964Z,3.40
2023-05-02T05:57:11.455Z,3.72
2023-05-02T05:59:39.380Z,3.47
2023-05-02T06:02:07.734Z,3.50
2023-05-02T06:04:35.451Z,3.58
2023-05-02T06:07:03.616Z,3.40
2023-05-02T06:09:30.952Z,3.70
2023-05-02T06:11:58.752Z,4.05
2023-05-02T06:14:26.881Z,3.40
2023-05-02T06:16:54.296Z,4.10
2023-05-02T06:19:22.067Z,4.18
2023-05-02T06:21:49.368Z,3.62
2023-05-02T06:24:17.124Z,4.95
2023-05-02T06:30:17.909Z,4.10
2023-05-02T06:32:45.572Z,3.62
2023-05-02T06:35:12.919Z,3.12
2023-05-02T06:37:40.225Z,4.28
2023-05-02T06:43:39.730Z,3.50
2023-05-02T06:46:08.002Z,4.57
2023-05-02T06:48:38.749Z,4.32
2023-05-02T06:51:27.443Z,3.40
2023-05-02T06:57:30.617Z,2.97
2023-05-02T06:59:58.746Z,3.30
2023-05-02T07:02:26.391Z,4.78
2023-05-02T07:04:53.896Z,3.08
2023-05-02T07:07:22.234Z,3.00
2023-05-02T07:09:49.725Z,3.12
2023-05-02T07:12:30.707Z,3.10
2023-05-02T07:14:58.587Z,2.72
2023-05-02T07:17:26.047Z,3.10
2023-05-02T07:19:56.612Z,2.80
2023-05-02T07:25:53.730Z,2.67
2023-05-02T07:28:21.303Z,2.85
2023-05-02T07:30:48.717Z,2.55
2023-05-02T07:33:16.311Z,2.80
2023-05-02T07:39:14.998Z,2.53
2023-05-02T07:41:42.706Z,2.70
2023-05-02T07:44:09.986Z,3.20
2023-05-02T07:46:37.314Z,3.95
2023-05-02T07:49:22.018Z,3.05
2023-05-02T07:55:30.696Z,3.08
2023-05-02T07:57:58.493Z,2.80
2023-05-02T08:00:34.375Z,2.85
2023-05-02T08:03:15.041Z,3.25
2023-05-02T08:05:42.495Z,3.47
2023-05-02T08:11:40.788Z,2.85
2023-05-02T08:14:48.711Z,3.00
2023-05-02T08:21:01.695Z,3.03
2023-05-02T08:33:08.669Z,2.95
2023-05-02T08:35:36.596Z,2.70
2023-05-02T08:41:35.202Z,3.03
2023-05-02T08:44:04.154Z,2.58
2023-05-02T08:46:33.261Z,4.15
2023-05-02T08:49:01.932Z,5.18
2023-05-02T08:51:32.617Z,3.30
2023-05-02T08:54:02.923Z,3.50
2023-05-02T08:56:30.686Z,5.22
2023-05-02T09:02:50.363Z,3.70
2023-05-02T09:05:21.004Z,2.83
2023-05-02T09:07:49.557Z,3.30
2023-05-02T09:10:16.832Z,3.40
2023-05-02T09:12:44.549Z,5.32
2023-05-02T09:15:19.195Z,2.87
2023-05-02T09:17:49.336Z,3.92
2023-05-02T09:23:47.878Z,2.80
2023-05-02T09:26:35.214Z,3.00
2023-05-02T09:29:04.864Z,2.42
2023-05-02T09:34:10.717Z,2.83
2023-05-02T09:36:50.516Z,3.20
2023-05-02T09:39:22.508Z,3.08
2023-05-02T09:41:51.527Z,2.70
2023-05-02T09:44:24.077Z,2.47
2023-05-02T09:46:56.058Z,2.87
2023-05-02T09:49:42.795Z,2.67
2023-05-02T09:52:15.376Z,2.65
2023-05-02T09:54:43.340Z,2.53
2023-05-02T09:57:11.511Z,2.80
2023-05-02T09:59:43.354Z,2.80
2023-05-02T10:02:12.188Z,2.97
2023-05-02T10:04:40.675Z,2.22
2023-05-02T10:07:10.683Z,2.60
2023-05-02T10:09:44.382Z,2.47
2023-05-02T10:12:17.205Z,2.55
2023-05-02T10:14:50.891Z,2.78
2023-05-02T10:17:35.105Z,2.85
2023-05-02T10:20:07.100Z,3.55
2023-05-02T10:22:36.911Z,3.97
2023-05-02T10:25:04.689Z,3.15
2023-05-02T10:27:33.132Z,4.15
2023-05-02T10:30:01.411Z,2.85
2023-05-02T10:32:29.677Z,2.85
2023-05-02T10:34:57.371Z,2.55
2023-05-02T10:37:28.449Z,4.97
2023-05-02T10:39:55.845Z,3.25
2023-05-02T10:42:23.975Z,2.62
2023-05-02T10:44:51.827Z,2.87
2023-05-02T10:47:22.753Z,3.20
2023-05-02T10:50:01.183Z,2.95
2023-05-02T10:52:34.493Z,2.37
2023-05-02T10:55:22.148Z,3.30
2023-05-02T10:58:09.493Z,2.78
2023-05-02T11:00:37.001Z,2.85
2023-05-02T11:03:04.836Z,3.37
2023-05-02T11:05:37.133Z,4.53
2023-05-02T11:08:19.376Z,3.58
2023-05-02T11:10:48.026Z,3.05
2023-05-02T11:13:15.983Z,3.50
2023-05-02T11:15:43.236Z,2.60
2023-05-02T11:18:14.740Z,3.12
2023-05-02T11:20:43.999Z,6.90
2023-05-02T11:23:24.752Z,7.15
2023-05-02T11:25:56.900Z,5.07
2023-05-02T11:28:45.348Z,3.42
2023-05-02T11:31:29.387Z,3.05
2023-05-02T11:33:57.286Z,2.42
2023-05-02T11:36:34.966Z,4.70
2023-05-02T11:39:05.941Z,2.03
2023-05-02T11:41:43.094Z,2.03
2023-05-02T11:44:10.480Z,2.60
2023-05-02T11:46:39.307Z,2.25
2023-05-02T11:49:09.799Z,2.85
2023-05-02T11:51:38.502Z,3.10
2023-05-02T11:54:08.079Z,2.08
2023-05-02T11:56:35.412Z,1.90
2023-05-02T11:59:04.164Z,2.72
2023-05-02T12:01:31.589Z,2.70
2023-05-02T12:04:07.378Z,2.17
2023-05-02T12:06:35.449Z,1.87
2023-05-02T12:09:10.724Z,2.40
2023-05-02T12:11:38.804Z,2.35
2023-05-02T12:14:09.452Z,2.60
2023-05-02T12:16:38.520Z,2.40
2023-05-02T12:19:06.058Z,2.80
2023-05-02T12:21:36.938Z,2.67
2023-05-02T12:24:04.587Z,2.20
2023-05-02T12:26:33.751Z,2.12
2023-05-02T12:29:02.845Z,2.90
2023-05-02T12:31:32.255Z,2.67
2023-05-02T12:34:00.583Z,2.30
2023-05-02T12:36:28.891Z,2.92
2023-05-02T12:38:59.919Z,2.28
2023-05-02T12:41:34.692Z,2.45
2023-05-02T12:44:01.985Z,2.80
2023-05-02T12:46:30.097Z,3.50
2023-05-02T12:49:12.479Z,12.50
2023-05-02T12:51:52.866Z,2.72
2023-05-02T12:54:20.713Z,3.30
2023-05-02T12:56:49.075Z,2.47
2023-05-02T12:59:29.996Z,2.87
2023-05-02T13:01:57.918Z,2.80
2023-05-02T13:04:45.470Z,2.65
2023-05-02T13:07:13.172Z,2.72
2023-05-02T13:09:40.518Z,2.47
2023-05-02T13:12:08.115Z,2.62
2023-05-02T13:14:35.745Z,2.83
2023-05-02T13:17:04.134Z,2.95
2023-05-02T13:19:31.775Z,2.78
2023-05-02T13:21:59.447Z,3.08
2023-05-02T13:24:26.810Z,2.85
2023-05-02T13:26:53.998Z,2.40
2023-05-02T13:29:22.206Z,3.37
2023-05-02T13:31:49.757Z,2.70
2023-05-02T13:34:17.087Z,4.03
2023-05-02T13:36:46.545Z,4.30
2023-05-02T13:39:16.688Z,5.28
2023-05-02T13:41:44.296Z,3.83
2023-05-02T13:44:11.836Z,3.25
2023-05-02T13:46:39.392Z,4.25
2023-05-02T13:49:06.854Z,3.10
2023-05-02T13:51:34.706Z,3.80
2023-05-02T13:54:05.097Z,3.10
2023-05-02T13:56:34.453Z,3.72
2023-05-02T13:59:02.566Z,3.83
2023-05-02T14:01:30.817Z,5.37
2023-05-02T14:03:59.521Z,3.33
2023-05-02T14:06:27.540Z,3.30
2023-05-02T14:08:55.301Z,4.60
2023-05-02T14:11:25.416Z,3.55
2023-05-02T14:13:57.570Z,4.07
2023-05-02T14:16:25.344Z,3.60
2023-05-02T14:18:54.829Z,3.47
2023-05-02T14:21:21.992Z,3.17
2023-05-02T14:23:49.934Z,3.22
2023-05-02T14:26:17.509Z,2.92
2023-05-02T14:28:44.671Z,3.75
2023-05-02T14:31:12.411Z,4.72
2023-05-02T14:33:39.909Z,3.72
2023-05-02T14:36:07.335Z,4.10
2023-05-02T14:38:34.952Z,3.28
2023-05-02T14:41:03.197Z,2.67
2023-05-02T14:43:30.721Z,3.25
2023-05-02T14:45:59.043Z,3.10
2023-05-02T14:48:26.430Z,3.28
2023-05-02T14:51:01.228Z,4.18
2023-05-02T14:57:11.937Z,3.55
2023-05-02T14:59:40.402Z,3.50
2023-05-02T15:02:08.037Z,3.00
2023-05-02T15:08:10.466Z,3.03
2023-05-02T15:10:39.277Z,3.65
2023-05-02T15:13:07.694Z,3.03
2023-05-02T15:15:35.449Z,3.28
2023-05-02T15:18:07.369Z,3.22
2023-05-02T15:20:34.964Z,3.37
2023-05-02T15:26:33.835Z,4.25
2023-05-02T15:29:02.467Z,3.60
2023-05-02T15:31:29.940Z,4.05
2023-05-02T15:33:57.270Z,9.05
2023-05-02T15:36:29.141Z,6.90
2023-05-02T15:38:57.145Z,8.23
2023-05-02T15:41:29.357Z,5.87
2023-05-02T15:43:58.638Z,7.75
2023-05-02T15:46:26.366Z,6.40
2023-05-02T15:48:56.754Z,5.32
2023-05-02T15:51:23.986Z,4.37
2023-05-02T15:53:52.738Z,4.37
2023-05-02T15:56:21.638Z,4.28
2023-05-02T16:02:19.591Z,6.00
2023-05-02T16:10:45.648Z,6.62
2023-05-02T16:13:13.198Z,3.90
2023-05-02T16:15:40.970Z,3.55
2023-05-02T16:18:09.185Z,3.65
2023-05-02T16:20:37.036Z,4.03
2023-05-02T16:26:34.824Z,3.70
2023-05-02T16:32:32.933Z,4.97
2023-05-02T16:37:33.859Z,4.32
2023-05-02T16:40:02.043Z,5.85
2023-05-02T16:42:29.811Z,6.70
2023-05-02T16:44:57.652Z,6.93
2023-05-02T16:47:28.407Z,5.07
2023-05-02T16:49:56.655Z,5.85
2023-05-02T16:52:24.620Z,6.07
2023-05-02T16:54:52.741Z,5.78
2023-05-02T16:57:21.315Z,5.25
2023-05-02T16:59:51.458Z,5.32
2023-05-02T17:02:21.131Z,4.72
2023-05-02T17:04:49.974Z,4.93
2023-05-02T17:07:17.668Z,5.20
2023-05-02T17:09:45.299Z,4.87
2023-05-02T17:12:12.946Z,5.10
2023-05-02T17:14:42.550Z,6.68
2023-05-02T17:17:10.715Z,9.05
2023-05-02T17:19:39.576Z,5.75
2023-05-02T17:22:07.364Z,4.55
2023-05-02T17:24:36.574Z,5.25
2023-05-02T17:27:04.041Z,4.90
2023-05-02T17:29:31.832Z,5.53
2023-05-02T17:32:02.733Z,5.60
2023-05-02T17:34:30.639Z,5.87
2023-05-02T17:36:57.917Z,5.18
2023-05-02T17:39:25.875Z,5.75
2023-05-02T17:41:53.460Z,5.32
2023-05-02T17:44:21.939Z,5.62
2023-05-02T17:46:49.557Z,5.62
2023-05-02T17:49:17.158Z,6.93
2023-05-02T17:51:44.954Z,8.85
2023-05-02T17:54:13.889Z,7.22
2023-05-02T17:56:41.995Z,6.70
2023-05-02T17:59:10.781Z,6.45
2023-05-02T18:01:43.175Z,7.10
2023-05-02T18:04:16.640Z,8.45
2023-05-02T18:06:48.206Z,7.68
2023-05-02T18:09:16.454Z,6.55
2023-05-02T18:11:46.988Z,6.78
2023-05-02T18:14:17.819Z,6.45
2023-05-02T18:16:48.805Z,7.03
2023-05-02T18:19:16.453Z,6.75
2023-05-02T18:21:46.414Z,6.20
2023-05-02T18:24:14.210Z,7.00
2023-05-02T18:26:42.472Z,6.15
2023-05-02T18:29:10.503Z,6.18
2023-05-02T18:31:40.591Z,6.37
2023-05-02T18:34:09.383Z,6.07
2023-05-02T18:36:37.314Z,6.43
2023-05-02T18:39:05.109Z,6.05
2023-05-02T18:41:32.394Z,5.53
2023-05-02T18:44:01.800Z,5.70
2023-05-02T18:46:30.099Z,5.85
2023-05-02T18:49:00.390Z,5.90
2023-05-02T18:51:29.242Z,5.97
2023-05-02T18:57:27.334Z,5.53
2023-05-02T19:03:29.149Z,6.30
2023-05-02T19:06:01.398Z,6.82
2023-05-02T19:08:29.372Z,6.45
2023-05-02T19:10:57.714Z,6.50
2023-05-02T19:13:27.587Z,6.55
2023-05-02T19:15:56.492Z,6.45
2023-05-02T19:18:27.455Z,7.12
2023-05-02T19:20:57.191Z,6.25
2023-05-02T19:25:58.041Z,6.78
2023-05-02T19:28:32.601Z,7.65
2023-05-02T19:31:03.833Z,6.75
2023-05-02T19:33:32.415Z,6.45
2023-05-02T19:36:00.120Z,7.93
2023-05-02T19:38:27.725Z,7.85
2023-05-02T19:40:56.433Z,7.25
2023-05-02T19:43:24.188Z,6.95
2023-05-02T19:45:54.717Z,30.85
2023-05-02T19:48:23.355Z,46.08
2023-05-02T19:50:58.386Z,17.67
2023-05-02T19:53:27.370Z,9.43
2023-05-02T19:55:55.174Z,7.60
2023-05-02T19:58:30.226Z,7.30
2023-05-02T20:00:58.536Z,6.47
2023-05-02T20:03:26.864Z,7.75
2023-05-02T20:05:58.735Z,7.53
2023-05-02T20:08:28.293Z,7.10
2023-05-02T20:10:56.393Z,6.60
2023-05-02T20:13:24.266Z,6.60
2023-05-02T20:15:52.942Z,7.78
2023-05-02T20:18:21.062Z,7.30
2023-05-02T20:20:49.636Z,7.75
2023-05-02T20:23:17.144Z,7.35
2023-05-02T20:25:46.186Z,7.97
2023-05-02T20:28:13.592Z,8.23
2023-05-02T20:30:42.079Z,7.43
2023-05-02T20:33:15.662Z,7.20
2023-05-02T20:35:45.280Z,7.30
2023-05-02T20:38:12.502Z,7.57
2023-05-02T20:40:40.880Z,7.53
2023-05-02T20:43:08.926Z,6.87
2023-05-02T20:45:36.153Z,7.30
2023-05-02T20:48:03.626Z,6.70
2023-05-02T20:50:31.273Z,6.85
2023-05-02T20:52:59.402Z,6.32
2023-05-02T20:55:26.788Z,6.80
2023-05-02T20:57:54.296Z,6.60
2023-05-02T21:00:24.437Z,6.40
2023-05-02T21:02:51.682Z,6.12
2023-05-02T21:05:19.090Z,6.25
2023-05-02T21:07:46.585Z,5.55
2023-05-02T21:10:13.857Z,5.60
2023-05-02T21:12:41.470Z,5.30
2023-05-02T21:15:08.732Z,5.07
2023-05-02T21:17:40.791Z,5.32
2023-05-02T21:20:10.287Z,4.72
2023-05-02T21:22:37.378Z,5.00
2023-05-02T21:25:04.933Z,4.95
2023-05-02T21:27:32.344Z,4.80
2023-05-02T21:29:59.966Z,4.43
2023-05-02T21:32:27.439Z,4.62
2023-05-02T21:34:54.944Z,4.55
2023-05-02T21:37:22.953Z,4.68
2023-05-02T21:39:50.274Z,4.93
2023-05-02T21:42:17.863Z,3.95
2023-05-02T21:44:44.935Z,4.60
2023-05-02T21:47:12.414Z,4.75
2023-05-02T21:49:40.125Z,4.68
2023-05-02T21:52:07.356Z,5.30
2023-05-02T21:54:34.443Z,5.62
2023-05-02T21:57:04.645Z,5.32
2023-05-02T21:59:31.760Z,5.22
2023-05-02T22:01:58.999Z,5.57
2023-05-02T22:04:26.814Z,5.68
2023-05-02T22:06:54.576Z,5.60
2023-05-02T22:09:22.545Z,5.30
2023-05-02T22:11:50.064Z,5.15
2023-05-02T22:14:17.309Z,5.12
2023-05-02T22:16:44.565Z,4.80
2023-05-02T22:19:11.952Z,5.00
2023-05-02T22:21:39.219Z,5.22
2023-05-02T22:24:06.551Z,4.87
2023-05-02T22:26:33.925Z,5.15
2023-05-02T22:29:01.074Z,5.47
2023-05-02T22:31:28.211Z,5.18
2023-05-02T22:33:55.663Z,5.65
2023-05-02T22:36:22.787Z,5.12
2023-05-02T22:38:49.947Z,5.12
2023-05-02T22:41:17.387Z,4.90
2023-05-02T22:43:44.509Z,5.18
2023-05-02T22:46:11.661Z,5.30
2023-05-02T22:48:39.086Z,4.75
2023-05-02T22:51:06.506Z,5.32
2023-05-02T22:53:33.681Z,5.35
2023-05-02T22:56:01.087Z,5.28
2023-05-02T22:58:28.456Z,5.30
2023-05-02T23:04:14.052Z,5.60
2023-05-02T23:10:11.628Z,5.63
2023-05-02T23:12:39.226Z,6.00
2023-05-02T23:15:07.332Z,6.18
2023-05-02T23:17:41.250Z,5.20
2023-05-02T23:20:12.326Z,5.70
2023-05-02T23:22:46.286Z,5.82
2023-05-02T23:25:14.832Z,5.03
2023-05-02T23:27:42.010Z,5.12
2023-05-02T23:30:09.807Z,6.00
2023-05-02T23:32:37.671Z,5.60
2023-05-02T23:35:05.948Z,5.37
2023-05-02T23:37:33.316Z,6.00
2023-05-02T23:40:01.273Z,5.30
2023-05-02T23:42:33.923Z,5.15
2023-05-02T23:45:01.722Z,5.60
2023-05-02T23:47:28.927Z,5.57
2023-05-02T23:49:56.694Z,6.05
2023-05-02T23:52:24.301Z,5.68
2023-05-02T23:54:52.707Z,5.80
2023-05-02T23:57:19.971Z,5.55
2023-05-02T23:59:47.556Z,5.70
